createdAt,value
2018-06-02T00:02:02.105Z,9.37
2018-06-02T00:07:05.723Z,11.53
2018-06-02T00:12:08.691Z,5.83
2018-06-02T00:17:11.984Z,4.20
2018-06-02T00:22:14.905Z,8.93
2018-06-02T00:27:17.785Z,5.03
2018-06-02T00:32:21.073Z,4.33
2018-06-02T00:37:23.981Z,4.93
2018-06-02T00:42:27.112Z,3.70
2018-06-02T00:47:30.491Z,6.20
2018-06-02T00:52:33.475Z,4.93
2018-06-02T00:57:36.635Z,6.80
2018-06-02T01:02:39.867Z,3.60
2018-06-02T01:07:43.023Z,5.27
2018-06-02T01:12:46.394Z,3.93
2018-06-02T01:17:49.628Z,9.10
2018-06-02T01:22:52.789Z,8.80
2018-06-02T01:27:56.314Z,14.93
2018-06-02T01:32:59.433Z,10.43
2018-06-02T01:38:03.095Z,4.87
2018-06-02T01:43:06.545Z,9.50
2018-06-02T01:48:09.523Z,5.20
2018-06-02T01:53:12.670Z,5.23
2018-06-02T01:58:15.776Z,7.47
2018-06-02T02:03:19.756Z,4.73
2018-06-02T02:08:23.254Z,4.90
2018-06-02T02:13:26.505Z,3.90
2018-06-02T02:18:29.759Z,5.93
2018-06-02T02:23:32.864Z,3.97
2018-06-02T02:28:35.957Z,3.53
2018-06-02T02:33:39.036Z,5.13
2018-06-02T02:38:42.666Z,4.53
2018-06-02T02:43:45.833Z,3.00
2018-06-02T02:48:49.252Z,4.53
2018-06-02T02:53:53.284Z,4.70
2018-06-02T02:58:56.581Z,3.60
2018-06-02T03:04:00.435Z,3.70
2018-06-02T03:09:03.703Z,5.50
2018-06-02T03:14:07.037Z,4.73
2018-06-02T03:19:10.808Z,5.97
2018-06-02T03:24:13.786Z,3.20
2018-06-02T03:29:16.879Z,5.53
2018-06-02T03:34:20.994Z,16.53
2018-06-02T03:39:24.149Z,10.73
2018-06-02T03:44:27.514Z,4.97
2018-06-02T03:49:30.789Z,7.20
2018-06-02T03:54:33.916Z,7.37
2018-06-02T03:59:36.949Z,12.83
2018-06-02T04:04:40.986Z,4.20
2018-06-02T04:09:44.209Z,6.17
2018-06-02T04:14:47.733Z,3.47
2018-06-02T04:19:51.782Z,4.33
2018-06-02T04:24:54.731Z,3.20
2018-06-02T04:29:58.195Z,3.50
2018-06-02T04:35:01.295Z,2.90
2018-06-02T04:40:04.711Z,3.60
2018-06-02T04:45:08.731Z,3.73
2018-06-02T04:50:12.050Z,4.60
2018-06-02T04:55:15.261Z,4.17
2018-06-02T05:00:18.364Z,3.40
2018-06-02T05:05:21.796Z,10.07
2018-06-02T05:10:27.355Z,6.10
2018-06-02T05:15:30.505Z,4.23
2018-06-02T05:20:33.936Z,3.50
2018-06-02T05:25:37.059Z,4.07
2018-06-02T05:30:40.014Z,5.27
2018-06-02T05:35:43.217Z,11.13
2018-06-02T05:40:46.406Z,3.43
2018-06-02T05:45:49.323Z,10.63
2018-06-02T05:50:52.250Z,4.30
2018-06-02T05:55:55.203Z,11.57
2018-06-02T06:00:58.614Z,4.50
2018-06-02T06:06:01.828Z,4.07
2018-06-02T06:11:04.802Z,13.23
2018-06-02T06:16:07.764Z,5.23
2018-06-02T06:21:10.872Z,7.77
2018-06-02T06:26:13.784Z,3.97
2018-06-02T06:31:16.654Z,4.70
2018-06-02T06:36:19.909Z,10.83
2018-06-02T06:41:23.072Z,4.20
2018-06-02T06:46:26.074Z,7.47
2018-06-02T06:51:29.000Z,12.80
2018-06-02T06:56:31.910Z,4.40
2018-06-02T07:01:34.805Z,4.23
2018-06-02T07:06:38.049Z,12.17
2018-06-02T07:11:41.100Z,5.33
2018-06-02T07:16:44.281Z,4.63
2018-06-02T07:21:47.325Z,7.63
2018-06-02T07:26:50.213Z,11.20
2018-06-02T07:31:53.131Z,12.27
2018-06-02T07:36:56.347Z,10.00
2018-06-02T07:41:59.485Z,14.13
2018-06-02T07:47:02.356Z,7.37
2018-06-02T07:52:05.701Z,5.00
2018-06-02T07:57:08.580Z,3.73
2018-06-02T08:02:11.464Z,11.33
2018-06-02T08:07:14.661Z,5.03
2018-06-02T08:12:17.828Z,8.87
2018-06-02T08:17:20.757Z,8.00
2018-06-02T08:22:26.393Z,7.40
2018-06-02T08:27:29.306Z,5.17
2018-06-02T08:32:32.237Z,3.53
2018-06-02T08:37:35.178Z,3.63
2018-06-02T08:42:38.350Z,7.03
2018-06-02T08:47:41.310Z,4.53
2018-06-02T08:52:46.797Z,6.50
2018-06-02T08:57:49.723Z,3.30
2018-06-02T09:02:52.626Z,3.43
2018-06-02T09:07:55.590Z,3.60
2018-06-02T09:12:58.756Z,5.03
2018-06-02T09:18:01.808Z,3.97
2018-06-02T09:23:04.812Z,5.47
2018-06-02T09:28:07.760Z,18.80
2018-06-02T09:33:10.677Z,8.13
2018-06-02T09:38:13.543Z,8.23
2018-06-02T09:43:16.714Z,2.97
2018-06-02T09:48:19.580Z,3.27
2018-06-02T09:53:22.933Z,3.57
2018-06-02T09:58:25.824Z,6.77
2018-06-02T10:03:28.753Z,6.27
2018-06-02T10:08:31.762Z,3.80
2018-06-02T10:13:34.657Z,2.50
2018-06-02T10:18:37.815Z,3.53
2018-06-02T10:23:41.081Z,3.83
2018-06-02T10:28:44.055Z,14.23
2018-06-02T10:33:47.454Z,4.27
2018-06-02T10:38:50.402Z,2.90
2018-06-02T10:43:53.301Z,3.20
2018-06-02T10:48:56.476Z,5.53
2018-06-02T10:53:59.421Z,4.10
2018-06-02T10:59:02.308Z,7.33
2018-06-02T11:04:05.189Z,5.60
2018-06-02T11:09:08.157Z,12.53
2018-06-02T11:14:11.224Z,4.37
2018-06-02T11:19:14.382Z,3.27
2018-06-02T11:24:17.520Z,5.30
2018-06-02T11:29:20.414Z,7.90
2018-06-02T11:34:23.268Z,12.47
2018-06-02T11:39:26.187Z,2.97
2018-06-02T11:44:29.162Z,4.10
2018-06-02T11:49:32.370Z,6.33
2018-06-02T11:54:35.317Z,4.80
2018-06-02T11:59:38.207Z,3.10
2018-06-02T12:04:41.112Z,10.97
2018-06-02T12:09:44.018Z,2.30
2018-06-02T12:14:46.945Z,4.50
2018-06-02T12:19:50.097Z,3.40
2018-06-02T12:24:53.349Z,5.57
2018-06-02T12:29:56.277Z,3.40
2018-06-02T12:34:59.554Z,3.20
2018-06-02T12:40:02.557Z,2.93
2018-06-02T12:45:05.530Z,6.37
2018-06-02T12:50:08.522Z,3.90
2018-06-02T12:55:11.777Z,2.30
2018-06-02T13:00:14.661Z,6.50
2018-06-02T13:05:17.552Z,2.83
2018-06-02T13:10:20.717Z,4.57
2018-06-02T13:15:23.606Z,8.03
2018-06-02T13:20:26.540Z,2.87
2018-06-02T13:25:30.037Z,4.97
2018-06-02T13:30:33.015Z,3.10
2018-06-02T13:35:35.978Z,2.73
2018-06-02T13:40:39.208Z,11.67
2018-06-02T13:45:42.771Z,2.70
2018-06-02T13:50:47.085Z,6.03
2018-06-02T13:55:50.981Z,2.93
2018-06-02T14:00:53.881Z,5.73
2018-06-02T14:05:56.996Z,3.13
2018-06-02T14:11:00.204Z,2.87
2018-06-02T14:16:03.126Z,4.83
2018-06-02T14:21:06.081Z,3.30
2018-06-02T14:26:09.481Z,3.00
2018-06-02T14:31:12.486Z,19.90
2018-06-02T14:36:15.521Z,35.30
2018-06-02T14:41:18.804Z,31.20
2018-06-02T14:46:22.015Z,36.67
2018-06-02T14:51:25.074Z,47.80
2018-06-02T14:56:28.393Z,52.07
2018-06-02T15:01:31.421Z,44.23
2018-06-02T15:06:34.435Z,47.00
2018-06-02T15:11:37.401Z,60.63
2018-06-02T15:16:40.349Z,40.77
2018-06-02T15:21:43.318Z,47.70
2018-06-02T15:26:46.573Z,51.03
2018-06-02T15:31:49.556Z,50.63
2018-06-02T15:36:52.485Z,49.17
2018-06-02T15:41:55.483Z,46.27
2018-06-02T15:46:58.777Z,41.77
2018-06-02T15:52:01.648Z,40.70
2018-06-02T15:57:04.566Z,38.50
2018-06-02T16:02:08.358Z,33.53
2018-06-02T16:07:11.690Z,40.80
2018-06-02T16:12:15.002Z,38.73
2018-06-02T16:17:18.505Z,28.33
2018-06-02T16:22:21.982Z,35.77
2018-06-02T16:27:25.393Z,43.23
2018-06-02T16:32:28.602Z,31.83
2018-06-02T16:37:31.977Z,37.90
2018-06-02T16:42:35.121Z,40.87
2018-06-02T16:47:38.604Z,32.23
2018-06-02T16:52:41.846Z,19.10
2018-06-02T16:57:44.977Z,35.40
2018-06-02T17:02:48.497Z,35.17
2018-06-02T17:07:51.815Z,33.67
2018-06-02T17:12:55.770Z,29.23
2018-06-02T17:17:59.636Z,39.93
2018-06-02T17:23:03.083Z,34.87
2018-06-02T17:28:06.495Z,29.43
2018-06-02T17:33:09.480Z,35.27
2018-06-02T17:38:12.462Z,28.30
2018-06-02T17:43:15.434Z,33.43
2018-06-02T17:48:18.494Z,26.67
2018-06-02T17:53:21.904Z,23.70
2018-06-02T17:58:25.515Z,24.80
2018-06-02T18:03:28.937Z,20.63
2018-06-02T18:08:32.337Z,23.37
2018-06-02T18:13:35.773Z,23.13
2018-06-02T18:18:39.151Z,19.10
2018-06-02T18:23:42.626Z,24.80
2018-06-02T18:28:46.681Z,23.33
2018-06-02T18:33:50.677Z,35.97
2018-06-02T18:38:54.160Z,28.60
2018-06-02T18:43:57.806Z,27.63
2018-06-02T18:49:02.016Z,27.60
2018-06-02T18:54:06.069Z,36.00
2018-06-02T18:59:10.796Z,37.30
2018-06-02T19:04:14.965Z,41.27
2018-06-02T19:09:19.021Z,39.90
2018-06-02T19:14:23.321Z,39.97
2018-06-02T19:19:27.383Z,49.57
2018-06-02T19:24:31.715Z,52.40
2018-06-02T19:29:37.164Z,51.50
2018-06-02T19:34:41.754Z,59.67
2018-06-02T19:39:45.863Z,32.87
2018-06-02T19:44:49.254Z,38.13
2018-06-02T19:49:52.582Z,60.77
2018-06-02T19:54:55.566Z,58.53
2018-06-02T19:59:59.289Z,65.57
2018-06-02T20:05:02.308Z,75.47
2018-06-02T20:10:05.328Z,69.07
2018-06-02T20:15:08.252Z,75.63
2018-06-02T20:20:11.678Z,82.67
2018-06-02T20:25:14.553Z,84.13
2018-06-02T20:30:18.122Z,65.53
2018-06-02T20:35:21.096Z,82.00
2018-06-02T20:40:24.204Z,78.70
2018-06-02T20:45:27.491Z,86.67
2018-06-02T20:50:30.715Z,85.57
2018-06-02T20:55:33.815Z,85.37
2018-06-02T21:00:37.018Z,88.43
2018-06-02T21:05:39.934Z,101.03
2018-06-02T21:10:42.889Z,82.57
2018-06-02T21:15:45.936Z,74.23
2018-06-02T21:20:48.990Z,91.27
2018-06-02T21:25:51.919Z,91.70
2018-06-02T21:30:54.944Z,76.97
2018-06-02T21:35:57.925Z,78.57
2018-06-02T21:41:00.861Z,77.30
2018-06-02T21:46:03.809Z,70.40
2018-06-02T21:51:06.722Z,93.10
2018-06-02T21:56:10.758Z,84.10
2018-06-02T22:01:13.735Z,73.07
2018-06-02T22:06:17.038Z,63.07
2018-06-02T22:11:20.195Z,79.57
2018-06-02T22:16:23.141Z,68.80
2018-06-02T22:21:26.004Z,71.20
2018-06-02T22:26:28.881Z,70.17
2018-06-02T22:31:32.171Z,70.13
2018-06-02T22:36:35.525Z,81.77
2018-06-02T22:41:39.050Z,67.90
2018-06-02T22:46:42.189Z,72.23
2018-06-02T22:51:56.217Z,68.33
2018-06-02T22:56:59.385Z,76.53
2018-06-02T23:02:03.832Z,81.80
2018-06-02T23:07:07.524Z,67.00
2018-06-02T23:12:10.617Z,91.67
2018-06-02T23:17:13.621Z,72.73
2018-06-02T23:22:38.607Z,63.70
2018-06-02T23:27:41.482Z,65.20
2018-06-02T23:32:44.731Z,79.53
2018-06-02T23:37:47.598Z,83.30
2018-06-02T23:42:50.761Z,79.80
2018-06-02T23:47:53.770Z,71.17
2018-06-02T23:52:56.700Z,64.90
2018-06-02T23:57:59.802Z,76.50
